Latest Weather Observations for Charlton

IDV60801

Issued at 2:02 pm EST Tuesday 26 July 2016 (issued every 30 minutes, with the page automatically refreshed every 10 minutes)

About weather observations | Map of weather stations | Latest weather observations for VIC | Other Formats
Station Details ID: 080128 Name: CHARLTON Lat: -36.28 Lon: 143.33 Height: 131.7 m
Data from the previous 72 hours. | See also: Recent months at Charlton
Date/Time
EST
Temp
°C
App
Temp
°C
Dew
Point
°C
Rel
Hum
%
Delta-T
°C
Wind Press
QNH
hPa
Press
MSL
hPa
Rain since
9am
mm
Dir  Spd
km/h
Gust
km/h
Spd
kts
Gust
kts
26/02:00pm 9.2 5.1 6.3 82 1.3 NNW 17 32 9 17 1012.3 1012.5 0.2
26/01:30pm 11.2 6.5 6.1 71 2.4 NNW 20 32 11 17 1012.7 1012.9 0.0
26/01:00pm 10.2 5.6 5.8 74 2.0 NNW 19 28 10 15 1013.2 1013.4 0.0
26/12:30pm 10.2 6.2 6.7 79 1.7 NNW 17 28 9 15 1013.9 1014.1 0.0
26/12:00pm 9.8 5.8 6.7 81 1.5 NNW 17 32 9 17 1014.3 1014.5 0.0
26/11:30am 9.7 5.6 6.4 80 1.5 NNW 17 28 9 15 1014.7 1014.9 0.0
26/11:00am 8.8 5.2 6.9 88 0.9 NNW 15 28 8 15 1015.1 1015.3 0.0
26/10:30am 7.6 4.2 6.1 90 0.7 NW 13 22 7 12 1015.4 1015.7 0.0
26/10:00am 7.0 3.2 5.9 93 0.5 NNW 15 20 8 11 1015.2 1015.4 0.0
26/09:30am 6.8 3.4 6.1 95 0.3 NNW 13 22 7 12 1015.2 1015.4 0.0
26/09:00am 6.2 2.7 5.6 96 0.3 NW 13 24 7 13 1015.2 1015.4 2.8
26/08:30am 5.2 1.6 5.1 99 0.0 NW 13 20 7 11 1015.0 1015.2 2.8
26/08:00am 4.6 0.9 4.5 99 0.0 NW 13 20 7 11 1014.7 1014.9 2.8
26/07:30am 4.1 0.3 4.0 99 0.0 NW 13 20 7 11 1014.5 1014.7 2.8
26/07:00am 3.4 -0.1 3.3 99 0.0 NW 11 17 6 9 1014.2 1014.4 2.8
26/06:30am 3.3 -0.6 3.2 99 0.0 NW 13 19 7 10 1013.8 1014.0 2.8
26/06:00am 3.2 -0.4 2.9 98 0.1 NNW 11 15 6 8 1013.5 1013.7 2.8
26/05:30am 3.6 0.0 3.0 96 0.2 NW 11 17 6 9 1013.0 1013.2 2.8
26/05:00am 4.1 0.2 3.2 94 0.4 NW 13 17 7 9 1013.0 1013.2 2.8
26/04:30am 4.8 0.6 3.9 94 0.4 NW 15 24 8 13 1013.0 1013.2 2.8
26/04:00am 5.0 0.9 4.1 94 0.4 WNW 15 24 8 13 1013.0 1013.2 2.8
26/03:30am 4.7 0.5 3.7 93 0.4 WNW 15 20 8 11 1012.9 1013.1 2.8
26/03:00am 4.6 0.9 4.2 97 0.2 WNW 13 20 7 11 1013.0 1013.2 2.8
26/02:30am 4.8 0.6 3.9 94 0.4 WNW 15 22 8 12 1012.9 1013.1 2.8
26/02:00am 5.2 0.6 3.5 89 0.7 WNW 17 26 9 14 1012.9 1013.1 2.8
26/01:30am 5.5 1.0 4.0 90 0.6 WNW 17 24 9 13 1012.8 1013.0 2.8
26/01:00am 5.4 1.2 3.9 90 0.6 WNW 15 22 8 12 1012.6 1012.8 2.8
26/12:30am 5.6 1.8 3.8 88 0.8 WNW 13 22 7 12 1012.6 1012.8 2.8
26/12:00am 6.0 1.8 3.8 86 0.9 WNW 15 24 8 13 1012.5 1012.7 2.8
 
Date/Time
EST
Temp
°C
App
Temp
°C
Dew
Point
°C
Rel
Hum
%
Delta-T
°C
Wind Press
QNH
hPa
Press
MSL
hPa
Rain since
9am
mm
Dir  Spd
km/h
Gust
km/h
Spd
kts
Gust
kts
25/11:30pm 6.7 1.8 3.9 82 1.2 W 19 28 10 15 1012.1 1012.3 2.8
25/11:00pm 7.3 2.2 4.1 80 1.4 W 20 33 11 18 1011.7 1011.9 2.8
25/10:30pm 7.6 3.3 5.2 85 1.1 W 17 28 9 15 1011.5 1011.7 2.8
25/10:00pm 8.2 3.6 5.8 85 1.1 WNW 19 28 10 15 1011.3 1011.5 2.8
25/09:30pm 8.6 4.6 6.7 88 0.9 WNW 17 26 9 14 1011.0 1011.2 2.8
25/09:00pm 8.8 4.8 6.6 86 1.0 WNW 17 28 9 15 1010.8 1011.0 2.8
25/08:30pm 8.9 5.0 7.0 88 0.9 WNW 17 28 9 15 1010.3 1010.6 2.8
25/08:00pm 9.0 4.9 7.8 92 0.6 WNW 19 33 10 18 1010.2 1010.5 2.8
25/07:30pm 8.8 5.1 8.0 95 0.4 WNW 17 26 9 14 1009.8 1010.1 2.8
25/07:00pm 8.6 4.3 7.8 95 0.4 WNW 20 30 11 16 1009.4 1009.7 2.8
25/06:30pm 9.5 2.9 8.4 93 0.5 NW 33 61 18 33 1009.0 1009.2 2.6
25/06:17pm 9.8 4.0 8.1 89 0.8 NW 28 52 15 28 1008.4 1008.6 1.8
25/06:00pm 10.5 4.5 7.2 80 1.6 NW 28 44 15 24 1007.7 1007.9 0.8
25/05:43pm 11.1 5.0 6.5 73 2.2 NNW 28 46 15 25 1007.2 1007.4 0.2
25/05:30pm 11.4 5.6 6.3 71 2.4 NNW 26 39 14 21 1006.6 1006.8 0.2
25/05:08pm 11.7 5.1 6.2 69 2.6 NNW 30 48 16 26 1006.8 1007.0 0.2
25/05:00pm 11.4 5.3 6.5 72 2.3 NNW 28 43 15 23 1007.0 1007.2 0.2
25/04:30pm 12.0 5.1 6.3 68 2.7 NNW 32 56 17 30 1007.4 1007.6 0.2
25/04:05pm 11.9 5.9 7.2 73 2.3 NNW 28 46 15 25 1007.8 1008.0 0.2
25/04:00pm 11.9 6.8 7.8 76 2.0 NNW 24 39 13 21 1007.8 1008.0 0.2
25/03:33pm 11.6 5.7 7.7 77 1.9 NNW 28 46 15 25 1008.3 1008.5 0.2
25/03:30pm 11.7 5.4 7.6 76 2.0 NNW 30 46 16 25 1008.2 1008.4 0.2
25/03:24pm 11.8 5.9 7.5 75 2.1 NW 28 46 15 25 1008.3 1008.5 0.2
25/03:00pm 11.5 6.8 9.2 86 1.2 NW 24 44 13 24 1008.6 1008.8 0.2
25/02:35pm 11.6 5.8 7.9 78 1.8 NW 28 46 15 25 1009.1 1009.4 0.0
25/02:30pm 11.8 6.3 7.5 75 2.1 NW 26 46 14 25 1009.1 1009.4 0.0
25/02:07pm 11.5 5.6 7.6 77 1.9 NW 28 46 15 25 1009.2 1009.5 0.0
25/02:00pm 11.3 6.1 7.2 76 2.0 NW 24 39 13 21 1009.2 1009.5 0.0
25/01:30pm 11.7 6.5 7.4 75 2.1 NNW 24 39 13 21 1009.6 1009.9 0.0
25/01:00pm 11.7 7.3 7.6 76 2.0 NW 20 33 11 18 1010.6 1010.8 0.0
25/12:30pm 11.8 7.1 7.7 76 2.0 NW 22 35 12 19 1011.2 1011.4 0.0
25/12:00pm 12.3 8.1 8.4 77 1.9 NW 20 30 11 16 1011.5 1011.7 0.0
25/11:30am 11.3 7.1 7.6 78 1.8 NW 19 26 10 14 1012.0 1012.2 0.0
25/11:00am 10.6 6.1 7.1 79 1.7 WNW 20 35 11 19 1012.4 1012.6 0.0
25/10:30am 10.3 6.2 7.9 85 1.2 WNW 19 28 10 15 1012.5 1012.7 0.0
25/10:00am 9.3 5.1 7.4 88 0.9 WNW 19 30 10 16 1012.6 1012.8 0.0
25/09:30am 8.7 4.9 7.5 92 0.6 WNW 17 28 9 15 1012.3 1012.5 0.0
25/09:00am 8.0 4.6 7.7 98 0.1 WNW 15 24 8 13 1012.2 1012.4 5.0
25/08:30am 7.3 3.8 7.2 99 0.0 WNW 15 22 8 12 1012.0 1012.2 5.0
25/08:00am 6.8 3.2 6.7 99 0.0 WNW 15 22 8 12 1011.6 1011.8 5.0
25/07:30am 6.7 3.4 6.6 99 0.0 WNW 13 19 7 10 1011.3 1011.5 5.0
25/07:00am 7.4 3.9 7.3 99 0.0 W 15 24 8 13 1011.1 1011.3 5.0
25/06:30am 8.1 4.4 7.8 98 0.1 W 17 26 9 14 1010.6 1010.8 5.0
25/06:00am 8.2 4.0 8.1 99 0.0 W 20 32 11 17 1010.0 1010.3 5.0
25/05:30am 8.1 4.0 8.0 99 0.0 W 19 28 10 15 1009.6 1009.9 5.0
25/05:00am 7.9 4.2 7.9 100 0.0 W 17 28 9 15 1009.2 1009.5 5.0
25/04:30am 7.8 4.1 7.8 100 0.0 WNW 17 32 9 17 1008.7 1008.9 5.0
25/04:00am 7.4 3.6 7.4 100 0.0 WNW 17 24 9 13 1008.6 1008.8 5.0
25/03:30am 6.7 2.7 6.7 100 0.0 WNW 17 30 9 16 1008.3 1008.5 5.0
25/03:00am 5.7 2.2 5.6 99 0.0 NW 13 19 7 10 1008.3 1008.5 5.0
25/02:30am 5.4 1.9 5.3 99 0.0 WNW 13 20 7 11 1008.2 1008.4 5.0
25/02:00am 5.9 2.5 5.8 99 0.0 WNW 13 20 7 11 1007.9 1008.1 5.0
25/01:30am 6.3 1.8 6.2 99 0.0 WNW 19 28 10 15 1007.8 1008.0 5.0
25/01:00am 6.6 2.6 6.5 99 0.0 W 17 28 9 15 1007.4 1007.6 5.0
25/12:30am 7.2 2.9 7.1 99 0.0 WNW 19 30 10 16 1007.1 1007.3 5.0
25/12:00am 7.3 3.0 7.2 99 0.0 WNW 19 28 10 15 1006.8 1007.0 5.0
 
Date/Time
EST
Temp
°C
App
Temp
°C
Dew
Point
°C
Rel
Hum
%
Delta-T
°C
Wind Press
QNH
hPa
Press
MSL
hPa
Rain since
9am
mm
Dir  Spd
km/h
Gust
km/h
Spd
kts
Gust
kts
24/11:30pm 7.1 3.6 7.0 99 0.0 NNW 15 24 8 13 1006.6 1006.8 4.8
24/11:00pm 7.0 3.8 6.9 99 0.0 NNW 13 22 7 12 1006.4 1006.6 4.8
24/10:30pm 7.0 3.8 6.9 99 0.0 NW 13 20 7 11 1006.5 1006.7 4.6
24/10:00pm 7.0 3.4 6.9 99 0.0 NNW 15 20 8 11 1006.6 1006.8 4.4
24/09:30pm 7.0 3.4 6.9 99 0.0 NNW 15 22 8 12 1006.9 1007.1 4.2
24/09:00pm 7.1 3.2 7.0 99 0.0 NNW 17 26 9 14 1007.1 1007.3 3.8
24/08:30pm 7.1 3.6 7.0 99 0.0 NNW 15 26 8 14 1007.0 1007.2 3.4
24/08:00pm 6.7 3.4 6.3 97 0.2 NNW 13 19 7 10 1007.0 1007.2 3.2
24/07:30pm 6.3 3.2 5.6 95 0.3 NNW 11 20 6 11 1007.0 1007.2 3.2
24/07:00pm 6.6 3.2 5.9 95 0.3 NNW 13 20 7 11 1006.8 1007.0 3.2
24/06:30pm 7.2 3.0 5.7 90 0.7 NW 17 26 9 14 1006.4 1006.6 3.2
24/06:00pm 7.6 3.5 6.1 90 0.7 NW 17 30 9 16 1006.1 1006.3 3.2
24/05:30pm 8.0 3.6 6.6 91 0.6 NW 19 30 10 16 1006.0 1006.2 3.2
24/05:00pm 8.2 3.9 7.1 93 0.5 NNW 19 30 10 16 1005.8 1006.0 3.2
24/04:30pm 8.4 4.5 7.0 91 0.7 NNW 17 28 9 15 1005.9 1006.1 2.6
24/04:00pm 7.6 3.2 6.7 94 0.4 NNW 19 30 10 16 1005.9 1006.1 2.6
24/03:30pm 7.4 0.9 4.5 82 1.3 NNW 28 56 15 30 1006.8 1007.0 0.6
24/03:28pm 9.0 3.3 4.8 75 1.9 NNW 24 56 13 30 1006.7 1006.9 0.2
24/03:00pm 11.6 6.6 4.6 62 3.2 N 20 35 11 19 1005.7 1005.9 0.0
24/02:30pm 12.0 7.2 4.7 61 3.4 NNW 19 32 10 17 1006.3 1006.5 0.0
24/02:00pm 11.8 6.2 5.4 65 3.0 NNW 24 39 13 21 1006.9 1007.1 0.0
24/01:30pm 11.8 7.0 5.4 65 3.0 NNW 20 32 11 17 1007.4 1007.6 0.0
24/01:00pm 11.5 6.8 6.2 70 2.5 NNW 20 33 11 18 1008.1 1008.3 0.0
24/12:30pm 11.4 6.7 6.1 70 2.5 NNW 20 30 11 16 1008.7 1008.9 0.0
24/12:00pm 10.7 6.1 6.3 74 2.1 NNW 20 33 11 18 1009.4 1009.7 0.0
24/11:30am 10.1 5.7 6.4 78 1.7 NNW 19 33 10 18 1010.1 1010.4 0.0
24/11:00am 9.9 5.1 5.7 75 1.9 N 20 32 11 17 1010.8 1011.0 0.0
24/10:30am 9.3 4.7 5.7 78 1.7 N 19 30 10 16 1011.1 1011.3 0.0
24/10:00am 8.5 4.5 4.9 78 1.6 N 15 22 8 12 1011.1 1011.3 0.0
24/09:30am 7.5 3.8 4.6 82 1.3 N 13 20 7 11 1011.5 1011.7 0.0
24/09:00am 6.3 2.5 4.0 85 1.0 N 13 20 7 11 1011.6 1011.8 0.0
24/08:30am 5.5 3.3 5.4 99 0.0 N 6 17 3 9 1011.9 1012.1 0.0
24/08:00am 3.5 0.9 3.4 99 0.0 NE 6 7 3 4 1012.0 1012.2 0.0
24/07:30am 3.0 0.2 2.9 99 0.0 NE 7 11 4 6 1011.7 1011.9 0.0
24/07:00am 3.1 -0.1 3.0 99 0.0 NE 9 13 5 7 1011.7 1011.9 0.0
24/06:30am 3.3 0.1 3.2 99 0.0 NE 9 11 5 6 1011.9 1012.1 0.0
24/06:00am 3.7 0.9 3.4 98 0.1 NE 7 9 4 5 1011.9 1012.1 0.0
24/05:30am 3.9 1.4 3.8 99 0.0 ENE 6 7 3 4 1012.0 1012.2 0.0
24/05:00am 3.9 1.4 3.8 99 0.0 N 6 7 3 4 1012.1 1012.3 0.0
24/04:30am 3.4 1.6 3.3 99 0.0 ENE 2 7 1 4 1012.3 1012.5 0.0
24/04:00am 3.2 1.7 3.1 99 0.0 CALM 0 0 0 0 1012.6 1012.8 0.0
24/03:30am 3.3 1.8 3.0 98 0.1 CALM 0 0 0 0 1013.1 1013.3 0.0
24/03:00am 3.9 1.7 3.6 98 0.1 NNW 4 7 2 4 1013.6 1013.8 0.0
24/02:30am 3.6 1.1 3.5 99 0.0 NNW 6 9 3 5 1013.8 1014.0 0.0
24/02:00am 3.2 0.4 3.1 99 0.0 NNW 7 11 4 6 1013.9 1014.1 0.0
24/01:30am 3.0 0.2 2.9 99 0.0 NNW 7 11 4 6 1013.9 1014.1 0.0
24/01:00am 3.1 -0.1 3.0 99 0.0 NNW 9 15 5 8 1014.0 1014.2 0.0
24/12:30am 2.8 0.5 2.7 99 0.0 NW 4 6 2 3 1014.1 1014.3 0.0
24/12:00am 3.1 0.5 3.0 99 0.0 NW 6 7 3 4 1014.3 1014.5 0.0
 
Date/Time
EST
Temp
°C
App
Temp
°C
Dew
Point
°C
Rel
Hum
%
Delta-T
°C
Wind Press
QNH
hPa
Press
MSL
hPa
Rain since
9am
mm
Dir  Spd
km/h
Gust
km/h
Spd
kts
Gust
kts
23/11:30pm 3.4 0.6 3.3 99 0.0 NW 7 9 4 5 1014.3 1014.5 0.0
23/11:00pm 3.9 1.2 3.8 99 0.0 NW 7 11 4 6 1014.4 1014.6 0.0
23/10:30pm 3.8 1.1 3.7 99 0.0 NW 7 11 4 6 1014.4 1014.6 0.0
23/10:00pm 3.4 0.8 3.1 98 0.1 NW 6 7 3 4 1014.3 1014.5 0.0
23/09:30pm 3.9 2.4 3.2 95 0.3 CALM 0 0 0 0 1014.5 1014.7 0.0
23/09:00pm 4.8 2.6 3.5 91 0.5 NW 4 7 2 4 1014.4 1014.6 0.0
23/08:30pm 5.5 2.5 4.0 90 0.6 W 9 13 5 7 1014.3 1014.5 0.0
23/08:00pm 5.7 3.1 4.0 89 0.7 WNW 7 13 4 7 1014.2 1014.4 0.0
23/07:30pm 6.3 2.9 4.1 86 0.9 WNW 11 17 6 9 1014.1 1014.3 0.0
23/07:00pm 6.2 2.4 3.9 85 1.0 WNW 13 19 7 10 1013.7 1013.9 0.0
23/06:30pm 6.4 3.0 3.9 84 1.1 WNW 11 15 6 8 1013.4 1013.6 0.0
23/06:00pm 7.0 3.9 3.6 79 1.5 NW 9 15 5 8 1013.1 1013.3 0.0
23/05:30pm 7.5 4.3 2.8 72 2.0 WNW 9 13 5 7 1012.8 1013.0 0.0
23/05:00pm 8.6 4.5 2.2 64 2.7 W 13 24 7 13 1012.5 1012.7 0.0
23/04:30pm 10.1 5.3 2.5 59 3.3 W 17 26 9 14 1012.3 1012.5 0.0
23/04:00pm 10.6 5.6 3.4 61 3.2 W 19 28 10 15 1012.0 1012.2 0.0
23/03:30pm 10.1 5.2 2.2 58 3.4 W 17 24 9 13 1011.8 1012.0 0.0
23/03:00pm 9.9 5.0 2.0 58 3.4 WSW 17 28 9 15 1011.5 1011.7 0.0
23/02:30pm 10.4 4.9 2.0 56 3.6 WSW 20 35 11 19 1011.2 1011.4 0.0

Other Formats:

Comma delimited format used in spreadsheet applications
http://www.bom.gov.au/fwo/IDV60801/IDV60801.94839.axf

JavaScript Object Notation format (JSON) in row-major order
http://www.bom.gov.au/fwo/IDV60801/IDV60801.94839.json